Time;durP1;ratioP1;P1;durP2;ratioP2;P2;SDS_P1;SDS_P2;PMS_P1;PMS_P2;Temp;Humidity;BMP_temperature;BMP_pressure;BME280_temperature;BME280_humidity;BME280_pressure;Samples;Min_cycle;Max_cycle;Signal;HPM_P1;HPM_P2
2024/02/17 00:01:13;;;;;;;15.60;8.18;;;9.80;99.90;;;;;;8449805;28;20086;-73
2024/02/17 00:05:15;;;;;;;14.10;8.32;;;9.80;99.90;;;;;;8451836;28;20043;-73
2024/02/17 00:09:17;;;;;;;16.73;9.52;;;9.80;99.90;;;;;;8454672;28;20179;-73
2024/02/17 00:13:19;;;;;;;16.40;9.35;;;9.80;99.90;;;;;;8452922;28;20075;-73
2024/02/17 00:17:21;;;;;;;15.93;9.05;;;9.80;99.90;;;;;;8448569;27;20044;-73
2024/02/17 00:21:23;;;;;;;15.38;8.43;;;9.80;99.90;;;;;;8456177;28;20549;-73
2024/02/17 00:25:25;;;;;;;17.55;8.85;;;9.80;99.90;;;;;;8456117;28;20047;-73
2024/02/17 00:29:26;;;;;;;15.73;8.38;;;9.80;99.90;;;;;;8456149;28;20048;-73
2024/02/17 00:33:28;;;;;;;18.25;8.07;;;9.80;99.90;;;;;;8453574;28;20521;-73
2024/02/17 00:37:31;;;;;;;15.80;7.60;;;9.80;99.90;;;;;;8454755;28;20391;-73
2024/02/17 00:41:33;;;;;;;14.38;7.63;;;9.80;99.90;;;;;;8450508;28;20127;-73
2024/02/17 00:45:35;;;;;;;14.60;7.82;;;9.80;99.90;;;;;;8455708;28;20104;-73
2024/02/17 00:49:36;;;;;;;14.73;8.05;;;9.80;99.90;;;;;;8457743;28;20047;-73
2024/02/17 00:53:42;;;;;;;21.52;8.45;;;9.90;99.90;;;;;;8450217;28;20043;-73
2024/02/17 00:57:44;;;;;;;15.80;8.32;;;9.80;99.90;;;;;;8456445;27;20041;-74
2024/02/17 01:01:46;;;;;;;17.08;7.68;;;9.90;99.90;;;;;;8454881;28;20078;-74
2024/02/17 01:05:51;;;;;;;16.83;8.32;;;9.90;99.90;;;;;;8452528;28;20070;-73
2024/02/17 01:09:55;;;;;;;13.05;7.68;;;9.80;99.90;;;;;;8455523;28;20571;-74
2024/02/17 01:13:57;;;;;;;15.23;8.00;;;9.90;99.90;;;;;;8448103;28;20052;-74
2024/02/17 01:17:59;;;;;;;17.63;8.52;;;9.90;99.90;;;;;;8452274;28;20070;-73
2024/02/17 01:22:01;;;;;;;18.33;7.72;;;9.90;99.90;;;;;;8454479;28;20051;-73
2024/02/17 01:26:03;;;;;;;16.10;8.32;;;9.90;99.90;;;;;;8453098;28;20044;-74
2024/02/17 01:30:05;;;;;;;17.58;9.05;;;9.90;99.90;;;;;;8451459;28;20077;-73
2024/02/17 01:34:07;;;;;;;16.38;8.55;;;9.90;99.90;;;;;;8452359;28;20044;-74
2024/02/17 01:38:10;;;;;;;17.83;8.30;;;9.90;99.90;;;;;;8452956;28;20044;-74
2024/02/17 01:42:11;;;;;;;16.77;8.90;;;9.90;99.90;;;;;;8455390;28;20447;-74
2024/02/17 01:46:13;;;;;;;14.73;8.90;;;9.90;99.90;;;;;;8452392;28;20469;-73
2024/02/17 01:50:15;;;;;;;14.82;8.65;;;9.90;99.90;;;;;;8453458;28;20047;-74
2024/02/17 01:54:18;;;;;;;16.17;8.30;;;9.90;99.90;;;;;;8449194;28;20096;-73
2024/02/17 01:58:20;;;;;;;15.10;8.27;;;9.90;99.90;;;;;;8454248;28;20051;-73
2024/02/17 02:02:22;;;;;;;14.80;7.97;;;9.90;99.90;;;;;;8453505;28;20048;-73
2024/02/17 02:06:24;;;;;;;14.15;7.20;;;9.90;99.90;;;;;;8453422;28;20418;-74
2024/02/17 02:10:26;;;;;;;17.23;8.10;;;9.90;99.90;;;;;;8454877;28;20071;-73
2024/02/17 02:14:30;;;;;;;18.20;8.13;;;9.90;99.90;;;;;;8443985;28;20402;-73
2024/02/17 02:18:32;;;;;;;14.65;7.60;;;9.90;99.90;;;;;;8448692;28;20055;-73
2024/02/17 02:22:35;;;;;;;13.88;7.25;;;9.90;99.90;;;;;;8452743;28;20058;-73
2024/02/17 02:26:37;;;;;;;13.35;7.55;;;9.90;99.90;;;;;;8451577;28;20058;-73
2024/02/17 02:30:40;;;;;;;13.25;6.78;;;9.90;99.90;;;;;;8451433;28;20096;-73
2024/02/17 02:34:42;;;;;;;12.05;7.32;;;9.90;99.90;;;;;;8453175;28;20074;-73
2024/02/17 02:38:46;;;;;;;11.20;6.38;;;10.00;99.90;;;;;;8448820;28;20079;-73
2024/02/17 02:42:48;;;;;;;14.45;6.25;;;9.90;99.90;;;;;;8449180;28;20051;-73
2024/02/17 02:46:50;;;;;;;9.18;5.53;;;9.90;99.90;;;;;;8448283;28;20387;-73
2024/02/17 02:50:52;;;;;;;10.95;5.70;;;9.90;99.90;;;;;;8452582;28;20080;-73
2024/02/17 02:54:53;;;;;;;12.13;6.03;;;10.00;99.90;;;;;;8450056;28;20043;-73
2024/02/17 02:58:55;;;;;;;10.95;6.22;;;10.00;99.90;;;;;;8449280;28;20048;-73
2024/02/17 03:02:57;;;;;;;10.45;5.18;;;10.00;99.90;;;;;;8451333;27;20058;-73
2024/02/17 03:06:59;;;;;;;10.60;5.57;;;10.00;99.90;;;;;;8455940;28;20051;-73
2024/02/17 03:11:01;;;;;;;9.13;5.22;;;10.00;99.90;;;;;;8456283;28;20043;-73
2024/02/17 03:15:04;;;;;;;14.18;4.93;;;10.00;99.90;;;;;;8451566;28;20413;-73
2024/02/17 03:19:06;;;;;;;10.63;6.10;;;10.00;99.90;;;;;;8456773;27;20051;-73
2024/02/17 03:23:08;;;;;;;9.93;6.13;;;10.00;99.90;;;;;;8455167;28;20444;-73
2024/02/17 03:27:10;;;;;;;10.40;5.88;;;9.90;99.90;;;;;;8457419;27;20402;-73
2024/02/17 03:31:12;;;;;;;9.65;6.05;;;9.90;99.90;;;;;;8458028;28;20051;-73
2024/02/17 03:35:14;;;;;;;12.65;6.45;;;9.90;99.90;;;;;;8455972;28;20183;-73
2024/02/17 03:39:18;;;;;;;11.18;6.95;;;9.90;99.90;;;;;;8455817;28;20056;-73
2024/02/17 03:43:21;;;;;;;11.75;6.45;;;9.90;99.90;;;;;;8456345;28;20051;-72
2024/02/17 03:47:23;;;;;;;17.25;8.05;;;9.80;99.90;;;;;;8454344;28;20402;-73
2024/02/17 03:51:25;;;;;;;12.90;6.85;;;9.80;99.90;;;;;;8457086;28;20048;-73
2024/02/17 03:55:27;;;;;;;14.95;8.35;;;9.80;99.90;;;;;;8453413;28;20043;-73
2024/02/17 03:59:28;;;;;;;12.93;8.23;;;9.70;99.90;;;;;;8455211;28;20425;-73
2024/02/17 04:03:31;;;;;;;14.07;7.80;;;9.70;99.90;;;;;;8456768;28;20675;-73
2024/02/17 04:07:33;;;;;;;12.77;8.20;;;9.80;99.90;;;;;;8456982;28;20044;-72
2024/02/17 04:11:37;;;;;;;15.43;8.70;;;9.80;99.90;;;;;;8453944;28;20502;-73
2024/02/17 04:15:39;;;;;;;14.50;7.82;;;9.80;99.90;;;;;;8448894;28;20143;-72
2024/02/17 04:19:41;;;;;;;13.95;8.30;;;9.80;99.90;;;;;;8455774;27;20042;-73
2024/02/17 04:23:43;;;;;;;19.23;8.70;;;9.80;99.90;;;;;;8456093;28;20047;-73
2024/02/17 04:27:45;;;;;;;12.98;7.38;;;9.80;99.90;;;;;;8454950;28;20044;-72
2024/02/17 04:31:47;;;;;;;14.35;8.40;;;9.70;99.90;;;;;;8452937;28;20414;-73
2024/02/17 04:35:51;;;;;;;12.05;7.60;;;9.70;99.90;;;;;;8453407;28;20048;-72
2024/02/17 04:39:53;;;;;;;14.07;7.93;;;9.70;99.90;;;;;;8452573;27;20118;-73
2024/02/17 04:43:55;;;;;;;15.13;7.32;;;9.70;99.90;;;;;;8476236;27;20119;-72
2024/02/17 04:47:57;;;;;;;14.75;8.80;;;9.70;99.90;;;;;;8452118;28;20455;-72
2024/02/17 04:51:59;;;;;;;16.00;9.25;;;9.60;99.90;;;;;;8455719;28;20050;-72
2024/02/17 04:56:01;;;;;;;15.52;8.55;;;9.60;99.90;;;;;;8450960;28;20067;-72
2024/02/17 05:00:05;;;;;;;18.13;8.40;;;9.70;99.90;;;;;;8453032;28;20040;-72
2024/02/17 05:04:08;;;;;;;12.73;7.75;;;9.70;99.90;;;;;;8452875;28;20043;-72
2024/02/17 05:08:10;;;;;;;13.30;8.18;;;9.70;99.90;;;;;;8454412;28;20067;-72
2024/02/17 05:12:12;;;;;;;13.75;7.43;;;9.70;99.90;;;;;;8453953;28;20051;-72
2024/02/17 05:16:14;;;;;;;16.27;8.38;;;9.70;99.90;;;;;;8442836;28;20040;-72
2024/02/17 05:20:16;;;;;;;16.67;8.23;;;9.70;99.90;;;;;;8438415;28;20473;-72
2024/02/17 05:24:17;;;;;;;14.27;7.60;;;9.70;99.90;;;;;;8452066;28;20411;-72
2024/02/17 05:28:20;;;;;;;16.30;7.47;;;9.80;99.90;;;;;;8450377;28;20050;-72
2024/02/17 05:32:21;;;;;;;15.82;8.55;;;9.70;99.90;;;;;;8449483;28;20109;-72
2024/02/17 05:36:24;;;;;;;14.60;7.70;;;9.80;99.90;;;;;;8454252;28;20052;-72
2024/02/17 05:40:26;;;;;;;12.48;7.47;;;9.70;99.90;;;;;;8455880;28;20053;-72
2024/02/17 05:44:28;;;;;;;13.65;7.45;;;9.80;99.90;;;;;;8450111;28;20058;-73
2024/02/17 05:48:30;;;;;;;14.73;7.88;;;9.70;99.90;;;;;;8451817;28;20066;-72
2024/02/17 05:52:32;;;;;;;12.27;7.70;;;9.70;99.90;;;;;;8453863;28;20056;-72
2024/02/17 05:56:34;;;;;;;12.77;7.57;;;9.70;99.90;;;;;;8454622;28;20043;-72
2024/02/17 06:00:36;;;;;;;12.95;7.43;;;9.70;99.90;;;;;;8455122;27;20097;-72
2024/02/17 06:04:38;;;;;;;13.98;7.85;;;9.70;99.90;;;;;;8452856;28;20480;-72
2024/02/17 06:08:41;;;;;;;15.30;8.07;;;9.70;99.90;;;;;;8449919;28;20148;-73
2024/02/17 06:12:43;;;;;;;13.27;7.30;;;9.70;99.90;;;;;;8455660;27;20156;-73
2024/02/17 06:16:45;;;;;;;11.30;7.00;;;9.70;99.90;;;;;;8421233;28;20044;-72
2024/02/17 06:25:08;;;;;;;13.18;6.97;;;9.70;99.90;;;;;;8421217;28;20470;-72
2024/02/17 06:29:22;;;;;;;12.48;6.32;;;9.70;99.90;;;;;;8421688;28;20047;-72
2024/02/17 06:33:24;;;;;;;13.32;6.72;;;9.70;99.90;;;;;;8425599;28;20044;-72
2024/02/17 06:37:26;;;;;;;13.45;6.65;;;9.70;99.90;;;;;;8427861;28;20496;-72
2024/02/17 06:41:28;;;;;;;13.63;6.68;;;9.70;99.90;;;;;;8429884;27;20051;-72
2024/02/17 06:45:30;;;;;;;13.18;6.57;;;9.70;99.90;;;;;;8425040;28;20043;-72
2024/02/17 06:49:32;;;;;;;11.48;6.35;;;9.70;99.90;;;;;;8427263;27;20039;-72
2024/02/17 06:53:34;;;;;;;11.48;5.95;;;9.70;99.90;;;;;;8428613;28;20051;-72
2024/02/17 06:57:37;;;;;;;14.15;6.32;;;9.70;99.90;;;;;;8432046;27;20494;-72
2024/02/17 07:01:39;;;;;;;13.60;6.45;;;9.70;99.90;;;;;;8440877;28;20043;-72
2024/02/17 07:05:41;;;;;;;12.30;6.25;;;9.60;99.90;;;;;;8438827;28;20384;-72
2024/02/17 07:09:43;;;;;;;12.48;6.43;;;9.70;99.90;;;;;;8424334;28;20051;-73
2024/02/17 07:13:45;;;;;;;12.15;6.50;;;9.60;99.90;;;;;;8426456;28;20078;-72
2024/02/17 07:17:48;;;;;;;16.75;7.13;;;9.60;99.90;;;;;;8427501;28;20043;-72
2024/02/17 07:21:50;;;;;;;12.38;6.40;;;9.70;99.90;;;;;;8425982;28;20444;-72
2024/02/17 07:25:51;;;;;;;12.68;6.60;;;9.70;99.90;;;;;;8427548;28;20048;-72
2024/02/17 07:29:54;;;;;;;12.25;6.70;;;9.70;99.90;;;;;;8425568;28;20483;-72
2024/02/17 07:33:57;;;;;;;15.80;6.35;;;9.70;99.90;;;;;;8454903;27;20043;-72
2024/02/17 07:37:59;;;;;;;15.90;6.72;;;9.70;99.90;;;;;;8422556;28;20499;-72
2024/02/17 07:42:02;;;;;;;16.50;6.93;;;9.80;99.90;;;;;;8420907;27;20056;-72
2024/02/17 07:46:04;;;;;;;13.55;6.60;;;9.80;99.90;;;;;;8426458;27;20112;-72
2024/02/17 07:50:07;;;;;;;12.60;6.25;;;9.80;99.90;;;;;;8435975;27;20509;-72
2024/02/17 07:59:32;;;;;;;12.45;5.63;;;9.90;99.90;;;;;;8430229;27;20051;-72
2024/02/17 08:03:34;;;;;;;13.05;6.53;;;9.90;99.90;;;;;;8424472;27;20050;-72
2024/02/17 08:07:36;;;;;;;11.02;5.60;;;9.90;99.90;;;;;;8424291;27;20071;-72
2024/02/17 08:11:37;;;;;;;17.02;6.65;;;9.90;99.90;;;;;;8423193;27;20136;-72
2024/02/17 08:15:39;;;;;;;12.23;5.75;;;10.00;99.90;;;;;;8420584;27;21435;-72
2024/02/17 08:19:41;;;;;;;15.43;6.75;;;10.00;99.90;;;;;;8426402;27;20055;-72
2024/02/17 08:23:43;;;;;;;12.80;6.40;;;10.10;99.90;;;;;;8424102;27;20559;-72
2024/02/17 08:27:45;;;;;;;12.93;6.68;;;10.20;99.90;;;;;;8427163;27;20047;-72
2024/02/17 08:31:49;;;;;;;14.18;5.93;;;10.20;99.90;;;;;;8424260;27;20499;-72
2024/02/17 08:35:53;;;;;;;13.38;6.22;;;10.30;99.90;;;;;;8423163;28;20079;-72
2024/02/17 08:39:55;;;;;;;13.00;5.47;;;10.30;99.90;;;;;;8421685;28;20552;-72
2024/02/17 08:43:56;;;;;;;13.15;6.30;;;10.40;99.90;;;;;;8422385;28;20056;-72
2024/02/17 08:47:58;;;;;;;14.50;6.22;;;10.40;99.90;;;;;;8422937;28;20055;-72
2024/02/17 08:52:01;;;;;;;13.57;6.35;;;10.40;99.90;;;;;;8420948;28;20155;-72
2024/02/17 08:56:03;;;;;;;14.57;6.95;;;10.50;99.90;;;;;;8420574;28;20048;-72
2024/02/17 09:00:05;;;;;;;16.08;7.38;;;10.50;99.90;;;;;;8420191;28;20054;-72
2024/02/17 09:04:08;;;;;;;11.63;6.65;;;10.50;99.90;;;;;;8453568;27;20059;-72
2024/02/17 09:08:09;;;;;;;16.60;8.07;;;10.50;99.90;;;;;;8417283;28;20490;-72
2024/02/17 09:13:04;;;;;;;17.70;8.07;;;10.60;99.90;;;;;;8420764;28;20454;-72
2024/02/17 09:17:06;;;;;;;16.00;7.82;;;10.60;99.90;;;;;;8417923;28;20359;-72
2024/02/17 09:21:08;;;;;;;15.18;7.90;;;10.60;99.90;;;;;;8434699;28;20059;-72
2024/02/17 09:25:10;;;;;;;17.15;8.43;;;10.70;99.90;;;;;;8422313;28;20051;-72
2024/02/17 09:29:12;;;;;;;15.52;8.30;;;10.70;99.90;;;;;;8422268;28;20117;-72
2024/02/17 09:33:14;;;;;;;18.77;8.75;;;10.70;99.90;;;;;;8423602;28;20075;-72
2024/02/17 09:37:16;;;;;;;15.60;7.88;;;10.70;99.90;;;;;;8434274;28;20082;-72
2024/02/17 09:41:18;;;;;;;17.33;8.75;;;10.70;99.90;;;;;;8421710;28;20051;-72
2024/02/17 09:45:21;;;;;;;16.63;9.02;;;10.80;99.90;;;;;;8421793;28;20095;-72
2024/02/17 09:49:26;;;;;;;16.25;8.65;;;10.90;99.90;;;;;;8433961;28;20127;-72
2024/02/17 09:53:31;;;;;;;18.02;8.63;;;10.90;99.90;;;;;;8423975;28;20051;-72
2024/02/17 09:57:33;;;;;;;19.30;9.13;;;10.90;99.90;;;;;;8423158;28;20082;-72
2024/02/17 10:01:48;;;;;;;16.67;7.95;;;10.90;99.90;;;;;;8431067;28;20115;-72
2024/02/17 10:05:50;;;;;;;11.73;6.95;;;11.00;99.90;;;;;;8429764;28;20054;-72
2024/02/17 10:09:52;;;;;;;13.68;7.57;;;11.00;99.90;;;;;;8435635;28;20075;-72
2024/02/17 10:14:02;;;;;;;13.90;7.50;;;11.00;99.90;;;;;;8425682;28;20139;-72
2024/02/17 10:18:04;;;;;;;13.32;7.53;;;11.10;99.90;;;;;;8430500;28;20056;-72
2024/02/17 10:22:06;;;;;;;14.95;7.55;;;11.10;99.90;;;;;;8422574;28;20511;-72
2024/02/17 10:26:08;;;;;;;13.30;6.85;;;11.20;99.90;;;;;;8421521;28;20472;-72
2024/02/17 10:30:16;;;;;;;13.23;7.55;;;11.20;99.90;;;;;;8420592;28;20105;-72
2024/02/17 10:34:18;;;;;;;14.48;8.15;;;11.30;99.90;;;;;;8432783;28;20052;-72
2024/02/17 10:38:22;;;;;;;15.20;7.60;;;11.30;99.90;;;;;;8419224;28;20421;-72
2024/02/17 10:42:24;;;;;;;18.77;7.72;;;11.40;99.90;;;;;;8416386;28;20551;-72
2024/02/17 10:46:27;;;;;;;16.40;8.90;;;11.40;99.90;;;;;;8420780;28;20200;-72
2024/02/17 10:50:46;;;;;;;14.98;8.38;;;11.40;99.90;;;;;;8421409;28;20075;-72
2024/02/17 10:55:06;;;;;;;16.10;7.72;;;11.40;99.90;;;;;;8423019;28;20052;-72
2024/02/17 10:59:08;;;;;;;15.05;7.82;;;11.40;99.90;;;;;;8419292;28;20101;-72
2024/02/17 11:03:13;;;;;;;17.30;8.20;;;11.50;99.90;;;;;;8420231;28;20071;-72
2024/02/17 11:07:16;;;;;;;13.55;7.22;;;11.50;99.90;;;;;;8417707;28;20395;-72
2024/02/17 11:11:23;;;;;;;14.95;8.48;;;11.60;99.90;;;;;;8421277;28;20043;-72
2024/02/17 11:15:25;;;;;;;12.25;6.78;;;11.60;99.90;;;;;;8418511;28;20044;-72
2024/02/17 11:19:27;;;;;;;17.25;8.32;;;11.60;99.90;;;;;;8422281;28;20079;-72
2024/02/17 11:23:42;;;;;;;19.17;8.82;;;11.70;99.90;;;;;;8428242;28;20055;-72
2024/02/17 11:27:44;;;;;;;14.32;8.20;;;11.70;99.90;;;;;;8420035;28;20040;-72
2024/02/17 11:31:48;;;;;;;15.93;7.90;;;11.80;99.90;;;;;;8426764;28;24354;-72
2024/02/17 11:35:50;;;;;;;15.45;8.77;;;11.80;99.90;;;;;;8420612;28;20048;-72
2024/02/17 11:39:52;;;;;;;15.70;9.20;;;11.90;99.90;;;;;;8425269;28;20507;-72
2024/02/17 11:43:55;;;;;;;17.35;9.25;;;11.90;99.90;;;;;;8426128;28;20083;-72
2024/02/17 11:47:57;;;;;;;19.55;10.07;;;12.00;99.90;;;;;;8422831;28;20384;-72
2024/02/17 11:51:59;;;;;;;18.17;9.68;;;12.10;99.90;;;;;;8421965;28;20544;-72
2024/02/17 11:56:02;;;;;;;17.48;8.85;;;12.00;99.90;;;;;;8449859;27;20544;-72
2024/02/17 12:00:08;;;;;;;18.42;10.50;;;12.00;99.90;;;;;;8416746;28;20122;-72
2024/02/17 12:04:11;;;;;;;17.25;10.35;;;12.10;99.90;;;;;;8420377;28;20109;-72
2024/02/17 12:08:13;;;;;;;19.25;10.23;;;12.20;99.90;;;;;;8419621;28;20138;-72
2024/02/17 12:12:15;;;;;;;18.27;10.07;;;12.30;99.90;;;;;;8452613;27;20630;-72
2024/02/17 12:21:41;;;;;;;17.30;9.77;;;12.50;99.90;;;;;;8423646;28;20027;-72
2024/02/17 12:25:44;;;;;;;18.00;10.98;;;12.60;99.90;;;;;;8421381;27;20052;-72
2024/02/17 12:29:50;;;;;;;20.73;10.95;;;12.60;99.90;;;;;;8423969;27;20384;-72
2024/02/17 12:33:52;;;;;;;21.70;12.02;;;12.60;99.90;;;;;;8424480;27;20062;-72
2024/02/17 12:37:56;;;;;;;19.75;11.93;;;12.60;99.90;;;;;;8425031;27;20403;-72
2024/02/17 12:42:04;;;;;;;19.35;10.88;;;12.60;99.90;;;;;;8422978;27;20055;-72
2024/02/17 12:46:36;;;;;;;17.35;10.60;;;12.60;99.90;;;;;;8421871;27;20044;-72
2024/02/17 12:50:40;;;;;;;15.13;9.32;;;12.60;99.90;;;;;;8423294;27;20052;-72
2024/02/17 12:54:43;;;;;;;15.18;9.98;;;12.60;99.90;;;;;;8425478;27;20047;-72
2024/02/17 12:58:45;;;;;;;16.95;10.65;;;12.60;99.90;;;;;;8451355;27;20604;-72
2024/02/17 13:02:47;;;;;;;15.75;9.70;;;12.60;99.90;;;;;;8422539;27;20140;-72
2024/02/17 13:06:49;;;;;;;15.88;10.40;;;12.50;99.90;;;;;;8420919;28;20105;-72
2024/02/17 13:10:52;;;;;;;22.13;12.95;;;12.60;99.90;;;;;;8417325;27;20048;-72
2024/02/17 13:14:54;;;;;;;21.90;12.95;;;12.80;99.90;;;;;;8422294;27;20050;-72
2024/02/17 13:18:58;;;;;;;19.42;12.82;;;13.00;99.90;;;;;;8422816;27;20047;-72
2024/02/17 13:23:32;;;;;;;18.95;12.43;;;13.10;99.90;;;;;;8423115;27;20052;-72
2024/02/17 13:27:40;;;;;;;19.25;12.35;;;13.10;99.90;;;;;;8423489;28;20101;-72
2024/02/17 13:31:42;;;;;;;19.23;11.88;;;13.10;99.90;;;;;;8419828;28;20059;-72
2024/02/17 13:35:44;;;;;;;20.42;12.30;;;13.10;99.90;;;;;;8413753;28;20070;-72
2024/02/17 13:39:46;;;;;;;18.02;12.23;;;12.90;99.90;;;;;;8420301;28;20048;-72
2024/02/17 13:43:48;;;;;;;17.58;11.25;;;12.90;99.90;;;;;;8420543;28;20040;-72
2024/02/17 13:47:50;;;;;;;19.90;11.45;;;12.80;99.90;;;;;;8421808;28;20582;-72
2024/02/17 13:51:52;;;;;;;14.75;10.32;;;12.80;99.90;;;;;;8419270;28;20048;-72
2024/02/17 13:55:54;;;;;;;18.50;11.02;;;12.80;99.90;;;;;;8422671;28;20109;-72
2024/02/17 13:59:58;;;;;;;22.35;11.18;;;13.00;99.90;;;;;;8421495;27;20040;-72
2024/02/17 14:04:40;;;;;;;14.48;8.48;;;13.10;99.90;;;;;;8422270;27;20048;-72
2024/02/17 14:08:42;;;;;;;14.13;7.90;;;13.10;99.90;;;;;;8418208;28;20047;-72
2024/02/17 14:13:25;;;;;;;14.55;7.65;;;13.00;99.90;;;;;;8423966;28;20097;-72
2024/02/17 14:17:27;;;;;;;14.20;7.28;;;13.00;99.90;;;;;;8420311;28;20047;-72
2024/02/17 14:21:29;;;;;;;18.70;8.02;;;12.90;99.90;;;;;;8421226;28;20047;-72
2024/02/17 14:25:33;;;;;;;14.27;8.27;;;12.80;99.90;;;;;;8422034;28;20040;-72
2024/02/17 14:29:44;;;;;;;14.95;8.80;;;12.70;99.90;;;;;;8422247;28;20539;-72
2024/02/17 14:33:45;;;;;;;16.63;8.68;;;12.70;99.90;;;;;;8423108;28;20544;-72
2024/02/17 14:37:48;;;;;;;13.80;7.75;;;12.70;99.90;;;;;;8431271;28;20039;-72
2024/02/17 14:41:50;;;;;;;12.00;6.72;;;12.70;99.90;;;;;;8426834;28;20048;-72
2024/02/17 14:45:52;;;;;;;14.00;6.80;;;12.70;99.90;;;;;;8431022;28;20104;-72
2024/02/17 14:49:54;;;;;;;15.32;8.02;;;12.80;99.90;;;;;;8423499;28;20052;-72
2024/02/17 14:53:56;;;;;;;11.77;7.20;;;12.80;99.90;;;;;;8422721;28;20048;-72
2024/02/17 14:57:58;;;;;;;11.88;7.45;;;12.70;99.90;;;;;;8421458;27;20445;-72
2024/02/17 15:02:00;;;;;;;12.00;6.82;;;12.60;99.90;;;;;;8428091;27;20658;-71
2024/02/17 15:06:03;;;;;;;12.90;6.45;;;12.60;99.90;;;;;;8428084;27;20051;-72
2024/02/17 15:10:07;;;;;;;10.63;6.25;;;12.60;99.90;;;;;;8424991;27;20048;-72
2024/02/17 15:14:09;;;;;;;9.38;5.63;;;12.60;99.90;;;;;;8422440;27;20501;-72
2024/02/17 15:18:10;;;;;;;11.07;6.10;;;12.60;99.90;;;;;;8430683;27;20048;-72
2024/02/17 15:22:12;;;;;;;10.80;6.28;;;12.60;99.90;;;;;;8428243;27;20051;-72
2024/02/17 15:26:14;;;;;;;15.77;7.00;;;12.60;99.90;;;;;;8425960;27;20432;-72
2024/02/17 15:30:17;;;;;;;12.10;6.55;;;12.70;99.90;;;;;;8427143;27;20063;-71
2024/02/17 15:34:20;;;;;;;13.65;6.90;;;12.70;99.90;;;;;;8415210;28;20048;-72
2024/02/17 15:38:24;;;;;;;13.23;7.10;;;12.70;99.90;;;;;;8427976;28;20036;-72
2024/02/17 15:42:27;;;;;;;13.05;6.85;;;12.80;99.90;;;;;;8434659;28;20481;-71
2024/02/17 15:46:29;;;;;;;12.65;6.38;;;12.70;99.90;;;;;;8431439;28;20055;-71
2024/02/17 15:50:31;;;;;;;12.38;6.57;;;12.70;99.90;;;;;;8432035;27;20052;-72
2024/02/17 15:54:33;;;;;;;10.68;6.25;;;12.60;99.90;;;;;;8431588;28;20059;-71
2024/02/17 15:58:34;;;;;;;10.93;6.03;;;12.50;99.90;;;;;;8428548;28;20048;-72
2024/02/17 16:02:37;;;;;;;13.00;6.82;;;12.50;99.90;;;;;;8423857;28;20040;-72
2024/02/17 16:06:41;;;;;;;11.60;7.47;;;12.40;99.90;;;;;;8422845;28;20047;-72
2024/02/17 16:10:43;;;;;;;14.13;7.40;;;12.30;99.90;;;;;;8428927;28;20078;-72
2024/02/17 16:14:45;;;;;;;10.95;6.68;;;12.30;99.90;;;;;;8422922;28;20071;-71
2024/02/17 16:18:49;;;;;;;12.95;7.15;;;12.20;99.90;;;;;;8424134;28;20044;-72
2024/02/17 16:22:52;;;;;;;13.98;7.80;;;12.30;99.90;;;;;;8425092;28;20487;-72
2024/02/17 16:26:53;;;;;;;12.60;6.80;;;12.20;99.90;;;;;;8424490;28;20052;-72
2024/02/17 16:30:56;;;;;;;10.55;6.28;;;12.10;99.90;;;;;;8421715;27;20044;-72
2024/02/17 16:34:58;;;;;;;12.27;6.43;;;12.00;99.90;;;;;;8425029;28;20047;-72
2024/02/17 16:39:04;;;;;;;13.18;6.80;;;12.00;99.90;;;;;;8430586;28;20079;-72
2024/02/17 16:43:06;;;;;;;12.15;7.38;;;11.90;99.90;;;;;;8421767;28;20127;-72
2024/02/17 16:47:11;;;;;;;9.55;5.40;;;11.90;99.90;;;;;;8421864;28;20047;-72
2024/02/17 16:51:13;;;;;;;7.88;5.03;;;11.90;99.90;;;;;;8426790;28;20452;-72
2024/02/17 16:55:15;;;;;;;8.70;4.97;;;11.90;99.90;;;;;;8426468;28;20502;-72
2024/02/17 16:59:17;;;;;;;9.38;5.80;;;11.90;99.90;;;;;;8426903;28;20036;-72
2024/02/17 17:03:20;;;;;;;8.65;5.00;;;11.90;99.90;;;;;;8427726;28;20040;-72
2024/02/17 17:07:22;;;;;;;9.15;5.13;;;11.80;99.90;;;;;;8420248;28;20776;-72
2024/02/17 17:11:25;;;;;;;13.35;5.90;;;11.80;99.90;;;;;;8424632;28;20524;-72
2024/02/17 17:15:27;;;;;;;9.32;5.80;;;11.80;99.90;;;;;;8421989;28;20054;-72
2024/02/17 17:19:28;;;;;;;12.88;6.13;;;11.80;99.90;;;;;;8418403;28;20052;-72
2024/02/17 17:23:31;;;;;;;10.48;6.25;;;11.80;99.90;;;;;;8420384;28;20051;-72
2024/02/17 17:27:34;;;;;;;10.70;5.32;;;11.70;99.90;;;;;;8450827;27;20076;-72
2024/02/17 17:31:36;;;;;;;10.90;6.20;;;11.70;99.90;;;;;;8423488;28;20047;-72
2024/02/17 17:35:38;;;;;;;10.23;6.32;;;11.70;99.90;;;;;;8427414;28;20040;-72
2024/02/17 17:39:40;;;;;;;11.45;6.22;;;11.70;99.90;;;;;;8422196;28;20052;-72
2024/02/17 17:43:41;;;;;;;10.45;6.10;;;11.70;99.90;;;;;;8417902;28;20521;-73
2024/02/17 17:47:43;;;;;;;9.88;6.03;;;11.60;99.90;;;;;;8418937;28;20487;-73
2024/02/17 17:51:46;;;;;;;11.32;6.43;;;11.50;99.90;;;;;;8425861;28;20072;-73
2024/02/17 17:55:48;;;;;;;10.10;5.88;;;11.40;99.90;;;;;;8421136;28;20047;-73
2024/02/17 17:59:52;;;;;;;11.90;5.95;;;11.40;99.90;;;;;;8427739;27;20040;-73
2024/02/17 18:03:54;;;;;;;13.85;6.78;;;11.30;99.90;;;;;;8421812;28;20145;-73
2024/02/17 18:07:58;;;;;;;12.30;6.05;;;11.30;99.90;;;;;;8449935;27;20278;-73
2024/02/17 18:12:00;;;;;;;12.55;6.75;;;11.30;99.90;;;;;;8426137;28;20062;-73
2024/02/17 18:16:02;;;;;;;13.23;6.45;;;11.30;99.90;;;;;;8417740;28;20106;-73
2024/02/17 18:20:05;;;;;;;14.77;6.82;;;11.40;99.90;;;;;;8422121;28;20101;-73
2024/02/17 18:24:07;;;;;;;13.52;7.15;;;11.40;99.90;;;;;;8421798;28;20483;-73
2024/02/17 18:28:09;;;;;;;12.80;8.30;;;11.40;99.90;;;;;;8419333;28;20052;-73
2024/02/17 18:32:11;;;;;;;13.57;7.55;;;11.40;99.90;;;;;;8429663;28;20826;-73
2024/02/17 18:36:17;;;;;;;14.65;8.90;;;11.40;99.90;;;;;;8461512;27;20070;-73
2024/02/17 18:40:19;;;;;;;14.85;7.78;;;11.40;99.90;;;;;;8430004;28;20049;-73
2024/02/17 18:44:22;;;;;;;15.25;7.63;;;11.40;99.90;;;;;;8425256;28;20047;-73
2024/02/17 18:48:23;;;;;;;16.45;8.23;;;11.40;99.90;;;;;;8429850;28;20105;-73
2024/02/17 18:52:28;;;;;;;12.75;7.80;;;11.40;99.90;;;;;;8458081;27;20494;-73
2024/02/17 18:56:30;;;;;;;14.20;8.57;;;11.40;99.90;;;;;;8429393;27;20051;-73
2024/02/17 19:00:31;;;;;;;16.58;8.82;;;11.40;99.90;;;;;;8425477;28;20094;-73
2024/02/17 19:04:33;;;;;;;14.55;8.43;;;11.40;99.90;;;;;;8427036;27;20123;-73
2024/02/17 19:08:35;;;;;;;15.55;8.95;;;11.40;99.90;;;;;;8427037;28;20047;-73
2024/02/17 19:12:37;;;;;;;16.25;9.82;;;11.40;99.90;;;;;;8431794;28;20402;-73
2024/02/17 19:16:39;;;;;;;17.45;9.68;;;11.40;99.90;;;;;;8427447;28;20044;-73
2024/02/17 19:20:41;;;;;;;16.35;9.45;;;11.40;99.90;;;;;;8426778;28;20087;-74
2024/02/17 19:24:42;;;;;;;19.58;10.13;;;11.40;99.90;;;;;;8424416;28;24671;-73
2024/02/17 19:28:44;;;;;;;14.50;9.75;;;11.40;99.90;;;;;;8433396;28;20512;-73
2024/02/17 19:32:47;;;;;;;20.48;11.07;;;11.40;99.90;;;;;;8425402;28;20081;-73
2024/02/17 19:36:49;;;;;;;21.27;11.68;;;11.40;99.90;;;;;;8428219;28;20071;-73
2024/02/17 19:40:50;;;;;;;17.35;10.63;;;11.40;99.90;;;;;;8428299;28;20054;-73
2024/02/17 19:44:52;;;;;;;19.70;10.88;;;11.40;99.90;;;;;;8427491;28;20434;-73
2024/02/17 19:48:54;;;;;;;20.05;11.32;;;11.40;99.90;;;;;;8428152;28;20443;-73
2024/02/17 19:52:56;;;;;;;14.77;9.63;;;11.40;99.90;;;;;;8428464;27;20044;-73
2024/02/17 20:02:22;;;;;;;18.13;10.57;;;11.30;99.90;;;;;;8427257;28;20038;-73
2024/02/17 20:06:58;;;;;;;17.65;11.52;;;11.30;99.90;;;;;;8430437;28;20063;-73
2024/02/17 20:11:00;;;;;;;15.68;10.32;;;11.30;99.90;;;;;;8425873;27;20051;-73
2024/02/17 20:15:03;;;;;;;15.23;10.32;;;11.30;99.90;;;;;;8421911;28;20047;-73
2024/02/17 20:19:05;;;;;;;18.33;11.07;;;11.30;99.90;;;;;;8425267;28;20048;-73
2024/02/17 20:23:07;;;;;;;15.18;9.45;;;11.30;99.90;;;;;;8424991;28;20075;-73
2024/02/17 20:27:10;;;;;;;18.13;11.43;;;11.30;99.90;;;;;;8428104;28;20086;-73
2024/02/17 20:31:11;;;;;;;14.93;9.75;;;11.40;99.90;;;;;;8433637;28;21086;-73
2024/02/17 20:35:13;;;;;;;16.45;9.93;;;11.30;99.90;;;;;;8427256;28;20073;-72
2024/02/17 20:39:15;;;;;;;13.23;7.88;;;11.30;99.90;;;;;;8432853;27;20708;-73
2024/02/17 20:43:17;;;;;;;16.02;10.32;;;11.20;99.90;;;;;;8435766;28;20483;-73
2024/02/17 20:47:19;;;;;;;13.73;8.85;;;11.10;99.90;;;;;;8438847;28;20647;-73
2024/02/17 20:51:21;;;;;;;15.73;9.63;;;11.10;99.90;;;;;;8436564;28;20062;-72
2024/02/17 20:55:22;;;;;;;17.45;9.73;;;11.10;99.90;;;;;;8424967;28;20503;-73
2024/02/17 20:59:25;;;;;;;14.65;9.10;;;11.10;99.90;;;;;;8425830;27;20052;-73
2024/02/17 21:03:27;;;;;;;16.00;8.05;;;11.20;99.90;;;;;;8422894;28;20077;-73
2024/02/17 21:07:29;;;;;;;13.60;9.10;;;11.10;99.90;;;;;;8429459;27;20058;-73
2024/02/17 21:11:30;;;;;;;11.73;7.72;;;11.10;99.90;;;;;;8426137;27;20473;-73
2024/02/17 21:15:32;;;;;;;15.50;8.20;;;11.20;99.90;;;;;;8423380;28;20568;-73